Terminal Aerodrome Forecast
Issued by NWS Flagstaff, AZ

Home | Current Version | Previous Version | Text Only | Print | Product List | Glossary On
Versions: 1 2 3 4 5 6 7 8 9 10 11 12 13 14 15 16 17 18 19 20 21
000
FTUS45 KFGZ 211136
TAFINW
TAF
KINW 211136Z 2112/2212 12006KT P6SM BKN110
     FM212100 27009KT P6SM SCT080 BKN100
      TEMPO 2122/2202 VRB15G25KT -TSRA SCT080CB
     FM220800 VRB05KT P6SM BKN100=

USA.gov is the U.S. government's official web portal to all federal, state and local government web resources and services.